Ясно с небольшим количеством низких облаков
Переменная облачность
Ясно с небольшим количеством низких облаков
Ясно с небольшим количеством низких облаков
Переменная облачность
Переменная облачность
Переменная облачность
Переменная облачность
Переменная облачность
(°C)
13°
13°
13°
13°
12°
12°
13°
13°
14°
14°
16°
16°
17°
17°
18°
18°
19°
19°
(°C)
12°
11°
11°
12°
13°
15°
16°
17°
18°
З
ЗСЗ
З
З
ЗСЗ
СЗ
ССЗ
С
С
(km/h)
8-17
8-17
8-17
9-18
9-19
10-20
11-19
12-19
13-20
(мм)
0
0
0
0
0
0
0
0
0
(%)
0
0
0
0
0
0
0
0
0

Высота солнцестояния

/ -13.7°
sun-icon
UV 6
04:51
21:18
Убывающая луна (199°)
23:12
05:32

METAR для 50.1°С 14.27°В (LKPR)

Время Условия Температура/
Точка росы
Ветер Видимость Погода Облачность Давление Изменить Необработанный
VFR 13°C / 11°C 260º 4kt 9700m - Clouds and Visibility OK 1015 No Significant change LKPR 230000Z 26004KT CAVOK 13/11 Q1015 NOSIG
VFR 14°C / 12°C 260º 5kt 9700m - Clouds and Visibility OK 1015 No Significant change LKPR 222330Z 26005KT CAVOK 14/12 Q1015 NOSIG
VFR 15°C / 12°C 270º 5kt 9700m - Clouds and Visibility OK 1015 No Significant change LKPR 222300Z 27005KT CAVOK 15/12 Q1015 NOSIG
VFR 15°C / 12°C 250º 5kt 9700m - Clouds and Visibility OK 1015 No Significant change LKPR 222230Z 25005KT CAVOK 15/12 Q1015 NOSIG
VFR 14°C / 12°C 250º 4kt 9700m - Clouds and Visibility OK 1015 No Significant change LKPR 222200Z 25004KT CAVOK 14/12 Q1015 NOSIG
VFR 14°C / 11°C 260º 4kt 9700m - Clouds and Visibility OK 1015 No Significant change LKPR 222130Z 26004KT CAVOK 14/11 Q1015 NOSIG
VFR 16°C / 11°C 280º 4kt 9700m - Clouds and Visibility OK 1015 No Significant change LKPR 222100Z 28004KT CAVOK 16/11 Q1015 NOSIG
VFR 17°C / 11°C 290º 4kt 9700m - Clouds and Visibility OK 1014 No Significant change LKPR 222030Z 29004KT CAVOK 17/11 Q1014 NOSIG
VFR 17°C / 11°C 300º 5kt 9700m - Clouds and Visibility OK 1014 No Significant change LKPR 222000Z 30005KT CAVOK 17/11 Q1014 NOSIG
VFR 18°C / 11°C 300º 4kt 9700m - Clouds and Visibility OK 1014 No Significant change LKPR 221930Z 30004KT CAVOK 18/11 Q1014 NOSIG
VFR 18°C / 11°C 290º variable 270º to 330º 4kt 9700m - Clouds and Visibility OK 1013 No Significant change LKPR 221900Z 29004KT 270V330 CAVOK 18/11 Q1013 NOSIG
VFR 19°C / 11°C 320º variable 280º to 340º 5kt 9700m - Clouds and Visibility OK 1013 No Significant change LKPR 221830Z 32005KT 280V340 CAVOK 19/11 Q1013 NOSIG
VFR 20°C / 10°C 280º 7kt 9700m - Clouds and Visibility OK 1013 No Significant change LKPR 221800Z 28007KT CAVOK 20/10 Q1013 NOSIG
VFR 22°C / 9°C 290º variable 260º to 320º 5kt 9700m - Clouds and Visibility OK 1013 No Significant change LKPR 221730Z 29005KT 260V320 CAVOK 22/09 Q1013 NOSIG
VFR 22°C / 10°C 280º 6kt 9700m - Clouds and Visibility OK 1013 No Significant change LKPR 221700Z 28006KT CAVOK 22/10 Q1013 NOSIG
VFR 22°C / 9°C 300º 8kt 9700m - Clouds and Visibility OK 1013 No Significant change LKPR 221630Z 30008KT CAVOK 22/09 Q1013 NOSIG
VFR 22°C / 8°C 270º variable 210º to 310º 9kt 9700m - Clouds and Visibility OK 1013 No Significant change LKPR 221600Z 27009KT 210V310 CAVOK 22/08 Q1013 NOSIG
VFR 22°C / 9°C 270º 10kt 9700m - Clouds and Visibility OK 1013 No Significant change LKPR 221530Z 27010KT CAVOK 22/09 Q1013 NOSIG
VFR 22°C / 9°C 240º 10kt 9700m - Clouds and Visibility OK 1013 No Significant change LKPR 221500Z 24010KT CAVOK 22/09 Q1013 NOSIG
VFR 22°C / 9°C 270º variable 230º to 300º 10kt 9700m - Clouds and Visibility OK 1013 No Significant change LKPR 221430Z 27010KT 230V300 CAVOK 22/09 Q1013 NOSIG
VFR 22°C / 9°C 270º 10kt 9700m - Clouds and Visibility OK 1014 No Significant change LKPR 221400Z 27010KT CAVOK 22/09 Q1014 NOSIG
VFR 22°C / 9°C 280º 12kt 9700m - Clouds and Visibility OK 1014 No Significant change LKPR 221330Z 28012KT CAVOK 22/09 Q1014 NOSIG
VFR 21°C / 10°C 260º variable 230º to 290º 11kt 9700m - Clouds and Visibility OK 1014 No Significant change LKPR 221300Z 26011KT 230V290 CAVOK 21/10 Q1014 NOSIG
VFR 22°C / 10°C 270º variable 250º to 310º 13kt 9700m - Clouds and Visibility OK 1014 No Significant change LKPR 221230Z 27013KT 250V310 CAVOK 22/10 Q1014 NOSIG

VFR

13°C / 11°C

[Больше]
Ветер 260º 4kt
Видимость 9700m
Погода -
Облачность Clouds and Visibility OK
Давление 1015
Изменить No Significant change
Необработанный LKPR 230000Z 26004KT CAVOK 13/11 Q1015 NOSIG

VFR

14°C / 12°C

[Больше]
Ветер 260º 5kt
Видимость 9700m
Погода -
Облачность Clouds and Visibility OK
Давление 1015
Изменить No Significant change
Необработанный LKPR 222330Z 26005KT CAVOK 14/12 Q1015 NOSIG

VFR

15°C / 12°C

[Больше]
Ветер 270º 5kt
Видимость 9700m
Погода -
Облачность Clouds and Visibility OK
Давление 1015
Изменить No Significant change
Необработанный LKPR 222300Z 27005KT CAVOK 15/12 Q1015 NOSIG

VFR

15°C / 12°C

[Больше]
Ветер 250º 5kt
Видимость 9700m
Погода -
Облачность Clouds and Visibility OK
Давление 1015
Изменить No Significant change
Необработанный LKPR 222230Z 25005KT CAVOK 15/12 Q1015 NOSIG

VFR

14°C / 12°C

[Больше]
Ветер 250º 4kt
Видимость 9700m
Погода -
Облачность Clouds and Visibility OK
Давление 1015
Изменить No Significant change
Необработанный LKPR 222200Z 25004KT CAVOK 14/12 Q1015 NOSIG

VFR

14°C / 11°C

[Больше]
Ветер 260º 4kt
Видимость 9700m
Погода -
Облачность Clouds and Visibility OK
Давление 1015
Изменить No Significant change
Необработанный LKPR 222130Z 26004KT CAVOK 14/11 Q1015 NOSIG

VFR

16°C / 11°C

[Больше]
Ветер 280º 4kt
Видимость 9700m
Погода -
Облачность Clouds and Visibility OK
Давление 1015
Изменить No Significant change
Необработанный LKPR 222100Z 28004KT CAVOK 16/11 Q1015 NOSIG

VFR

17°C / 11°C

[Больше]
Ветер 290º 4kt
Видимость 9700m
Погода -
Облачность Clouds and Visibility OK
Давление 1014
Изменить No Significant change
Необработанный LKPR 222030Z 29004KT CAVOK 17/11 Q1014 NOSIG

VFR

17°C / 11°C

[Больше]
Ветер 300º 5kt
Видимость 9700m
Погода -
Облачность Clouds and Visibility OK
Давление 1014
Изменить No Significant change
Необработанный LKPR 222000Z 30005KT CAVOK 17/11 Q1014 NOSIG

VFR

18°C / 11°C

[Больше]
Ветер 300º 4kt
Видимость 9700m
Погода -
Облачность Clouds and Visibility OK
Давление 1014
Изменить No Significant change
Необработанный LKPR 221930Z 30004KT CAVOK 18/11 Q1014 NOSIG

VFR

18°C / 11°C

[Больше]
Ветер 290º variable 270º to 330º 4kt
Видимость 9700m
Погода -
Облачность Clouds and Visibility OK
Давление 1013
Изменить No Significant change
Необработанный LKPR 221900Z 29004KT 270V330 CAVOK 18/11 Q1013 NOSIG

VFR

19°C / 11°C

[Больше]
Ветер 320º variable 280º to 340º 5kt
Видимость 9700m
Погода -
Облачность Clouds and Visibility OK
Давление 1013
Изменить No Significant change
Необработанный LKPR 221830Z 32005KT 280V340 CAVOK 19/11 Q1013 NOSIG

VFR

20°C / 10°C

[Больше]
Ветер 280º 7kt
Видимость 9700m
Погода -
Облачность Clouds and Visibility OK
Давление 1013
Изменить No Significant change
Необработанный LKPR 221800Z 28007KT CAVOK 20/10 Q1013 NOSIG

VFR

22°C / 9°C

[Больше]
Ветер 290º variable 260º to 320º 5kt
Видимость 9700m
Погода -
Облачность Clouds and Visibility OK
Давление 1013
Изменить No Significant change
Необработанный LKPR 221730Z 29005KT 260V320 CAVOK 22/09 Q1013 NOSIG

VFR

22°C / 10°C

[Больше]
Ветер 280º 6kt
Видимость 9700m
Погода -
Облачность Clouds and Visibility OK
Давление 1013
Изменить No Significant change
Необработанный LKPR 221700Z 28006KT CAVOK 22/10 Q1013 NOSIG

VFR

22°C / 9°C

[Больше]
Ветер 300º 8kt
Видимость 9700m
Погода -
Облачность Clouds and Visibility OK
Давление 1013
Изменить No Significant change
Необработанный LKPR 221630Z 30008KT CAVOK 22/09 Q1013 NOSIG

VFR

22°C / 8°C

[Больше]
Ветер 270º variable 210º to 310º 9kt
Видимость 9700m
Погода -
Облачность Clouds and Visibility OK
Давление 1013
Изменить No Significant change
Необработанный LKPR 221600Z 27009KT 210V310 CAVOK 22/08 Q1013 NOSIG

VFR

22°C / 9°C

[Больше]
Ветер 270º 10kt
Видимость 9700m
Погода -
Облачность Clouds and Visibility OK
Давление 1013
Изменить No Significant change
Необработанный LKPR 221530Z 27010KT CAVOK 22/09 Q1013 NOSIG

VFR

22°C / 9°C

[Больше]
Ветер 240º 10kt
Видимость 9700m
Погода -
Облачность Clouds and Visibility OK
Давление 1013
Изменить No Significant change
Необработанный LKPR 221500Z 24010KT CAVOK 22/09 Q1013 NOSIG

VFR

22°C / 9°C

[Больше]
Ветер 270º variable 230º to 300º 10kt
Видимость 9700m
Погода -
Облачность Clouds and Visibility OK
Давление 1013
Изменить No Significant change
Необработанный LKPR 221430Z 27010KT 230V300 CAVOK 22/09 Q1013 NOSIG

VFR

22°C / 9°C

[Больше]
Ветер 270º 10kt
Видимость 9700m
Погода -
Облачность Clouds and Visibility OK
Давление 1014
Изменить No Significant change
Необработанный LKPR 221400Z 27010KT CAVOK 22/09 Q1014 NOSIG

VFR

22°C / 9°C

[Больше]
Ветер 280º 12kt
Видимость 9700m
Погода -
Облачность Clouds and Visibility OK
Давление 1014
Изменить No Significant change
Необработанный LKPR 221330Z 28012KT CAVOK 22/09 Q1014 NOSIG

VFR

21°C / 10°C

[Больше]
Ветер 260º variable 230º to 290º 11kt
Видимость 9700m
Погода -
Облачность Clouds and Visibility OK
Давление 1014
Изменить No Significant change
Необработанный LKPR 221300Z 26011KT 230V290 CAVOK 21/10 Q1014 NOSIG

VFR

22°C / 10°C

[Больше]
Ветер 270º variable 250º to 310º 13kt
Видимость 9700m
Погода -
Облачность Clouds and Visibility OK
Давление 1014
Изменить No Significant change
Необработанный LKPR 221230Z 27013KT 250V310 CAVOK 22/10 Q1014 NOSIG

TAF для 50.1°С 14.27°В (LKPR)

From till


From till Wind 320º 6kt. Visibility 9700m. Nil Significant Cloud.
Becoming from till
With 30% probability, Temporarly from till Wind 10º 12kt. Showers Rain . Scattered Clouds 3000ft.
Becoming from till

Необработанный: TAF LKPR 222300Z 2300/2406 32006KT CAVOK BECMG 2305/2307 9999 SCT035 PROB30 TEMPO 2312/2316 01012KT SHRA SCT030TCU BECMG 2316/2318 CAVOK

Радарный и сверхкраткосрочный прогноз осадков для 50.1°С 14.27°В

Морось
Незначительные
Умеренные
Сильные
Очень Сильные
Град

Индикатор местности находится на 50.1°С 14.27°В. Эта анимация показывает радар осадков для выбранного диапазона времени, а также 2h прогноз. Оранжевые кресты обозначают молнию. Данные предоставлены nowcast.de (доступны в США, Европе, Австралии). Морось или небольшой снег могут быть невидимы для радара. Интенсивность осадков имеет цветовую кодировку - от бирюзового до красного.

Текущие спутниковые изображения и снимки дождя для 50.1°С 14.27°В

Указатель местности находится на 50.1°С 14.27°В. [Больше]

Спутниковое изображение в реальном времени сочетает в себе видимый свет в дневное время с инфракрасным излучением в ночное время. Ночью изображение получается не темным, так как инфракрасное излучение может обнаружить разницу температур. К сожалению, низкие облака и туман трудно отличить от температуры у поверхности земли и поэтому могут быть почти незаметны ночью. Спутниковые снимки Meteosat для Европы обновляются каждые 5 минут в режиме реального времени.Снимки GOES-16/GOES-17 (Северная и Южная Америка) и Химавари (Азия) обновляются каждые 10 минут.

Осадки оцениваются по данным радаров и спутников. Оценка осадков со спутников менее точна ночью, чем днем.

© 2024 meteoblue, NOAA Satellites GOES-16 and EUMETSAT. Данные о молниях предоставляются со стороны nowcast.

Обратно к последним данным
×
Привет,
похоже, что вы используете блокировщик рекламы.

Реклама необходима для поддержания нашего бесплатного сайта с уникальной детализацией и точностью.

Пожалуйста, внесите www.meteoblue.com в белый список вашего блокировщика рекламы или рассмотрите возможность покупки одного из наших продуктов:

У вас уже есть подписка?
Тогда, пожалуйста, логин.